Crawfordsville, IN

5:23 PM EST on December 21, 2014 (GMT -0500)
Eagle Creek | Change Station
CLOSE
Current Station
Airport
Location: Eagle Creek,
Elevation: 820 ft
Nearby Weather Stations

Elev 820 ft 39.83 °N, 86.30 °W | Updated 30 minutes ago

Clear
Clear
34 °F
Feels Like 29 °F
N
6
Wind Variable Wind from SE

Today
High -- | Low -- °F
--% Chance of Precip.
Yesterday
High -- | Low -- °F
Precip. -- in
8:06 AM 5:25 PM
Waning Crescent, 0% visible
Pressure 30.17 in
Visibility 8.0 miles
Clouds Clear
Windchill 29 °F
Dew Point 27 °F
Humidity 75%
Rainfall 0.00 in
Snow Depth Not available.
UV 0 out of 12
Pollen .10 out of 12
Air Quality Not available.
Flu Activity Not available.
METAR KEYE 212153Z AUTO 13005KT 8SM CLR 01/M03 A3014 RMK AO2 SLP215 T00111028

More Conditions Fewer Conditions

Pressure 30.17 in
Visibility 8.0 miles
Clouds Clear
Windchill 29 °F
Dew Point 27 °F
Humidity 75%
Rainfall 0.00 in
Snow Depth Not available.
UV 0 out of 12
Pollen .10 out of 12
Air Quality Not available.
Flu Activity Not available.
METAR KEYE 212153Z AUTO 13005KT 8SM CLR 01/M03 A3014 RMK AO2 SLP215 T00111028

More Conditions Fewer Conditions

10-Day Weather Forecast

Almanac

Astronomy

Dec. 21, 2014 Rise Set
Actual Time
Civil Twilight
Nautical Twilight
Astronomical Twilight
Moon
Length of Visible Light
Length of Day
Tomorrow will be .
, % of the Moon is Illuminated

Today's Extremes

State Highs State Lows

Community

WunderPhotos

Upload Photos

1,779,499 photos uploaded!

WunderBlogs® & News

Nearby

Air Quality

  Air Quality AQ Index Pollutant
Not available.

Snow Depth

Station Depth Elevation

Earthquake Activity

City Distance Mag. Time & Date
Minimum magnitude displayed is 2.5.

Coastal Water Temperatures

Place Temperature

Nearby Weather Stations